Portada
METAR-TAF:

METAR-TAF

Aeroports :

Terceira, Açores, Portugal

latitud: 38-46N, longitud: 027-06W, altitud: 52 m

Observació

L'informe es va fer fa 22 minuts, a les 00:00 UTC
Temperatura 25°C
Humitat 89%
Pressió 1021 hPa
Visibilitat 10 km o més
Escasses núvols a una alçada de 1600 ft
Núvols disperses a una alçada de 2200 ft
Cel ennuvolat a una alçada de 3500 ft

METAR: LPLA 150000Z /////KT 9999 FEW016 SCT022 BKN035 25/23 Q1021

Hora: 00:22 (00:22 UTC)

Pronòstic

L'informe es va fer fa 1 hora i 21 minuts, a les 23:01 UTC
Pronòstic vàlid del 15 a les 00 UTC al 15 a les 24 UTC
Vent 12 kt del Oest/Nord-Oest
Visibilitat 10 km o més
Núvols disperses a una alçada de 2200 ft
Probabilitat 40% :
Temporalment
l' 15 a les 11 UTC al 15 a les 19 UTC
Visibilitat: 7000 m
Cel ennuvolat a una alçada de 2000 ft
Escasses núvols a una alçada de 2200 ft, Cumulus congestus.
xàfecs de pluja

TAF: LPLA 142301Z 1500/1524 29012KT 9999 SCT022 PROB40 TEMPO 1511/1519 7000 -SHRA BKN020 FEW022TCU

Observacions i pronòstics meteorològics de més de 4000 aeroports (METAR i TAF).

Les estacions disponibles són els punts grocs i vermells al mapa.

Posi el ratolí al punt desitjat per veure el nom de l'estació.

Feu clic per veure les observacions i els pronòstics meteorològics.

Per canviar el mapa: feu clic els botons verds amb una creu de color negre per apropar; al botó verd amb un guió per allunyar la imatge; o en les fletxes verdes per a mapes adjacents.


METAR-TAF: